Terminal Aerodrome Forecast
Issued by NWS

Home | Current Version | Previous Version | Text Only | Print | Product List | Glossary On
Versions: 1 2 3 4 5 6 7 8 9 10 11 12 13 14 15 16 17 18 19 20 21 22 23 24 25
000
FTUS41 KCTP 011329 AAA
TAFBFD
TAF AMD
KBFD 011329Z 0113/0212 15006KT 4SM -RA BR OVC006
      TEMPO 0113/0114 1 1/2SM BR OVC005
     FM011900 19006KT 6SM BR VCSH OVC015
     FM020600 32003KT 2SM BR OVC004=

USA.gov is the U.S. government's official web portal to all federal, state and local government web resources and services.